OLBA/BEY METAR and TAF weather

Enter ICAO airport designator
Station Type Date Time Source
OLBA METAR 2023/02/05 13:00 UTC NOAA

OLBA 051300Z 18020KT 3000 +TSRA FEW020CB BKN025 12/11 Q1010 RERA NOSIG


Station Type Date Time Source
OLBA Decoded METAR 2023/02/05 13:00 UTC NOAA

Beyrouth Aeroport , Lebanon (OLBA) 33-49N 035-29E 19M
Feb 05, 2023 - 08:00 AM EST / 2023.02.05 1300 UTC
Wind: from the S (180 degrees) at 23 MPH (20 KT):0
Visibility: 1 mile(s):0
Sky conditions: mostly cloudy
Weather: heavy rain with thunder; Cumulonimbus clouds observed
Temperature: 53 F (12 C)
Dew Point: 51 F (11 C)
Relative Humidity: 93%
Pressure (altimeter): 29.83 in. Hg (1010 hPa)
ob: OLBA 051300Z 18020KT 3000 +TSRA FEW020CB BKN025 12/11 Q1010 RERA NOSIG
cycle: 13

Station Type Date Time Source
OLBA TAF 2023/02/05 12:01 UTC NOAA

TAF OLBA 051000Z 0512/0618 20014KT 8000 -RA BKN025
TEMPO 0512/0518 5000 TSRA FEW020CB BKN023
BECMG 0518/0521 26020G40KT 6000 RA BKN023
TEMPO 0518/0618 3000 TSSHRA SCT018CB OVC022

Example: see airport list